sensor_id;sensor_type;location;lat;lon;timestamp;P1;durP1;ratioP1;P2;durP2;ratioP2
37535;SDS011;23379;51.554;6.736;2023-07-13T00:00:12;9.23;;;2.08;;
37535;SDS011;23379;51.554;6.736;2023-07-13T00:02:40;6.35;;;1.88;;
37535;SDS011;23379;51.554;6.736;2023-07-13T00:05:06;11.45;;;2.03;;
37535;SDS011;23379;51.554;6.736;2023-07-13T00:07:32;11.02;;;2.42;;
37535;SDS011;23379;51.554;6.736;2023-07-13T00:09:57;7.97;;;1.98;;
37535;SDS011;23379;51.554;6.736;2023-07-13T00:12:28;12.40;;;2.22;;
37535;SDS011;23379;51.554;6.736;2023-07-13T00:15:00;7.88;;;1.90;;
37535;SDS011;23379;51.554;6.736;2023-07-13T00:17:27;7.50;;;2.00;;
37535;SDS011;23379;51.554;6.736;2023-07-13T00:19:54;8.38;;;2.10;;
37535;SDS011;23379;51.554;6.736;2023-07-13T00:22:21;5.32;;;2.00;;
37535;SDS011;23379;51.554;6.736;2023-07-13T00:24:46;9.02;;;2.05;;
37535;SDS011;23379;51.554;6.736;2023-07-13T00:27:12;11.23;;;1.85;;
37535;SDS011;23379;51.554;6.736;2023-07-13T00:29:38;5.35;;;1.70;;
37535;SDS011;23379;51.554;6.736;2023-07-13T00:32:04;11.65;;;1.90;;
37535;SDS011;23379;51.554;6.736;2023-07-13T00:34:31;5.90;;;2.05;;
37535;SDS011;23379;51.554;6.736;2023-07-13T00:36:57;7.88;;;2.00;;
37535;SDS011;23379;51.554;6.736;2023-07-13T00:39:22;6.25;;;1.83;;
37535;SDS011;23379;51.554;6.736;2023-07-13T00:41:48;7.78;;;2.13;;
37535;SDS011;23379;51.554;6.736;2023-07-13T00:44:14;4.75;;;1.80;;
37535;SDS011;23379;51.554;6.736;2023-07-13T00:46:41;8.95;;;1.98;;
37535;SDS011;23379;51.554;6.736;2023-07-13T00:49:07;6.35;;;1.77;;
37535;SDS011;23379;51.554;6.736;2023-07-13T00:51:44;7.82;;;1.85;;
37535;SDS011;23379;51.554;6.736;2023-07-13T00:54:14;8.57;;;2.13;;
37535;SDS011;23379;51.554;6.736;2023-07-13T00:56:43;15.00;;;2.25;;
37535;SDS011;23379;51.554;6.736;2023-07-13T00:59:10;12.00;;;2.42;;
37535;SDS011;23379;51.554;6.736;2023-07-13T01:01:37;5.70;;;2.10;;
37535;SDS011;23379;51.554;6.736;2023-07-13T01:04:04;7.63;;;2.30;;
37535;SDS011;23379;51.554;6.736;2023-07-13T01:06:32;7.18;;;2.30;;
37535;SDS011;23379;51.554;6.736;2023-07-13T01:09:00;6.50;;;1.70;;
37535;SDS011;23379;51.554;6.736;2023-07-13T01:11:26;4.72;;;1.88;;
37535;SDS011;23379;51.554;6.736;2023-07-13T01:13:51;10.43;;;2.08;;
37535;SDS011;23379;51.554;6.736;2023-07-13T01:16:27;17.35;;;2.33;;
37535;SDS011;23379;51.554;6.736;2023-07-13T01:18:54;10.93;;;1.60;;
37535;SDS011;23379;51.554;6.736;2023-07-13T01:21:23;4.20;;;1.80;;
37535;SDS011;23379;51.554;6.736;2023-07-13T01:23:49;7.65;;;1.98;;
37535;SDS011;23379;51.554;6.736;2023-07-13T01:26:14;5.75;;;1.75;;
37535;SDS011;23379;51.554;6.736;2023-07-13T01:28:40;7.05;;;2.05;;
37535;SDS011;23379;51.554;6.736;2023-07-13T01:31:05;8.70;;;2.33;;
37535;SDS011;23379;51.554;6.736;2023-07-13T01:33:31;4.45;;;1.90;;
37535;SDS011;23379;51.554;6.736;2023-07-13T01:35:56;6.30;;;2.00;;
37535;SDS011;23379;51.554;6.736;2023-07-13T01:38:24;7.63;;;1.83;;
37535;SDS011;23379;51.554;6.736;2023-07-13T01:40:51;9.98;;;2.05;;
37535;SDS011;23379;51.554;6.736;2023-07-13T01:43:17;8.93;;;2.15;;
37535;SDS011;23379;51.554;6.736;2023-07-13T01:45:44;8.30;;;2.10;;
37535;SDS011;23379;51.554;6.736;2023-07-13T01:48:10;5.18;;;1.85;;
37535;SDS011;23379;51.554;6.736;2023-07-13T01:50:36;4.85;;;1.90;;
37535;SDS011;23379;51.554;6.736;2023-07-13T01:53:02;5.20;;;2.30;;
37535;SDS011;23379;51.554;6.736;2023-07-13T01:55:28;4.90;;;1.98;;
37535;SDS011;23379;51.554;6.736;2023-07-13T01:57:54;5.45;;;1.75;;
37535;SDS011;23379;51.554;6.736;2023-07-13T02:00:19;5.05;;;1.98;;
37535;SDS011;23379;51.554;6.736;2023-07-13T02:02:45;8.00;;;2.35;;
37535;SDS011;23379;51.554;6.736;2023-07-13T02:05:10;9.32;;;2.33;;
37535;SDS011;23379;51.554;6.736;2023-07-13T02:07:37;10.75;;;2.00;;
37535;SDS011;23379;51.554;6.736;2023-07-13T02:10:02;8.15;;;2.00;;
37535;SDS011;23379;51.554;6.736;2023-07-13T02:12:28;8.50;;;1.83;;
37535;SDS011;23379;51.554;6.736;2023-07-13T02:14:53;10.65;;;1.95;;
37535;SDS011;23379;51.554;6.736;2023-07-13T02:17:18;5.13;;;1.80;;
37535;SDS011;23379;51.554;6.736;2023-07-13T02:19:44;6.95;;;2.15;;
37535;SDS011;23379;51.554;6.736;2023-07-13T02:22:09;7.55;;;2.20;;
37535;SDS011;23379;51.554;6.736;2023-07-13T02:24:35;7.75;;;2.17;;
37535;SDS011;23379;51.554;6.736;2023-07-13T02:27:00;15.10;;;2.60;;
37535;SDS011;23379;51.554;6.736;2023-07-13T02:29:25;6.32;;;2.08;;
37535;SDS011;23379;51.554;6.736;2023-07-13T02:31:51;5.22;;;2.17;;
37535;SDS011;23379;51.554;6.736;2023-07-13T02:34:16;7.47;;;2.20;;
37535;SDS011;23379;51.554;6.736;2023-07-13T02:36:41;7.72;;;2.10;;
37535;SDS011;23379;51.554;6.736;2023-07-13T02:39:07;10.48;;;2.28;;
37535;SDS011;23379;51.554;6.736;2023-07-13T02:41:33;8.63;;;2.10;;
37535;SDS011;23379;51.554;6.736;2023-07-13T02:43:59;4.53;;;1.83;;
37535;SDS011;23379;51.554;6.736;2023-07-13T02:46:32;6.00;;;2.35;;
37535;SDS011;23379;51.554;6.736;2023-07-13T02:48:58;12.50;;;2.47;;
37535;SDS011;23379;51.554;6.736;2023-07-13T02:51:24;7.03;;;2.30;;
37535;SDS011;23379;51.554;6.736;2023-07-13T02:53:50;8.27;;;2.30;;
37535;SDS011;23379;51.554;6.736;2023-07-13T02:56:15;6.90;;;2.08;;
37535;SDS011;23379;51.554;6.736;2023-07-13T02:58:40;5.03;;;1.85;;
37535;SDS011;23379;51.554;6.736;2023-07-13T03:01:07;6.72;;;2.28;;
37535;SDS011;23379;51.554;6.736;2023-07-13T03:03:34;10.32;;;2.58;;
37535;SDS011;23379;51.554;6.736;2023-07-13T03:06:00;7.78;;;2.47;;
37535;SDS011;23379;51.554;6.736;2023-07-13T03:08:28;11.63;;;2.55;;
37535;SDS011;23379;51.554;6.736;2023-07-13T03:11:04;7.05;;;2.25;;
37535;SDS011;23379;51.554;6.736;2023-07-13T03:13:32;10.63;;;2.70;;
37535;SDS011;23379;51.554;6.736;2023-07-13T03:19:19;7.18;;;2.35;;
37535;SDS011;23379;51.554;6.736;2023-07-13T03:21:45;8.80;;;2.25;;
37535;SDS011;23379;51.554;6.736;2023-07-13T03:24:10;11.55;;;2.60;;
37535;SDS011;23379;51.554;6.736;2023-07-13T03:26:36;9.85;;;2.60;;
37535;SDS011;23379;51.554;6.736;2023-07-13T03:29:02;10.35;;;2.58;;
37535;SDS011;23379;51.554;6.736;2023-07-13T03:31:30;12.85;;;2.38;;
37535;SDS011;23379;51.554;6.736;2023-07-13T03:36:25;5.35;;;2.20;;
37535;SDS011;23379;51.554;6.736;2023-07-13T03:38:56;9.38;;;2.28;;
37535;SDS011;23379;51.554;6.736;2023-07-13T03:41:23;6.35;;;2.50;;
37535;SDS011;23379;51.554;6.736;2023-07-13T03:43:49;8.70;;;2.38;;
37535;SDS011;23379;51.554;6.736;2023-07-13T03:46:15;6.55;;;2.38;;
37535;SDS011;23379;51.554;6.736;2023-07-13T03:48:41;11.20;;;2.75;;
37535;SDS011;23379;51.554;6.736;2023-07-13T03:51:09;8.57;;;2.58;;
37535;SDS011;23379;51.554;6.736;2023-07-13T03:53:37;5.68;;;2.17;;
37535;SDS011;23379;51.554;6.736;2023-07-13T03:56:04;9.98;;;2.45;;
37535;SDS011;23379;51.554;6.736;2023-07-13T03:58:37;6.30;;;1.95;;
37535;SDS011;23379;51.554;6.736;2023-07-13T04:01:05;6.18;;;2.20;;
37535;SDS011;23379;51.554;6.736;2023-07-13T04:03:32;5.93;;;2.40;;
37535;SDS011;23379;51.554;6.736;2023-07-13T04:05:58;5.68;;;2.20;;
37535;SDS011;23379;51.554;6.736;2023-07-13T04:08:26;6.68;;;2.22;;
37535;SDS011;23379;51.554;6.736;2023-07-13T04:10:55;8.27;;;2.60;;
37535;SDS011;23379;51.554;6.736;2023-07-13T04:13:21;13.05;;;2.83;;
37535;SDS011;23379;51.554;6.736;2023-07-13T04:15:46;9.73;;;2.38;;
37535;SDS011;23379;51.554;6.736;2023-07-13T04:18:12;5.85;;;2.40;;
37535;SDS011;23379;51.554;6.736;2023-07-13T04:20:37;7.85;;;2.72;;
37535;SDS011;23379;51.554;6.736;2023-07-13T04:23:03;8.45;;;2.63;;
37535;SDS011;23379;51.554;6.736;2023-07-13T04:25:28;13.30;;;2.90;;
37535;SDS011;23379;51.554;6.736;2023-07-13T04:27:53;8.85;;;2.95;;
37535;SDS011;23379;51.554;6.736;2023-07-13T04:30:19;7.10;;;2.55;;
37535;SDS011;23379;51.554;6.736;2023-07-13T04:32:45;9.40;;;2.47;;
37535;SDS011;23379;51.554;6.736;2023-07-13T04:35:11;14.10;;;2.75;;
37535;SDS011;23379;51.554;6.736;2023-07-13T04:37:37;11.73;;;3.13;;
37535;SDS011;23379;51.554;6.736;2023-07-13T04:40:03;8.60;;;2.65;;
37535;SDS011;23379;51.554;6.736;2023-07-13T04:42:29;7.88;;;2.72;;
37535;SDS011;23379;51.554;6.736;2023-07-13T04:44:54;9.75;;;2.42;;
37535;SDS011;23379;51.554;6.736;2023-07-13T04:47:20;8.15;;;2.45;;
37535;SDS011;23379;51.554;6.736;2023-07-13T04:49:45;12.48;;;2.50;;
37535;SDS011;23379;51.554;6.736;2023-07-13T04:52:11;11.32;;;2.70;;
37535;SDS011;23379;51.554;6.736;2023-07-13T04:54:36;11.85;;;2.92;;
37535;SDS011;23379;51.554;6.736;2023-07-13T04:57:02;10.45;;;2.67;;
37535;SDS011;23379;51.554;6.736;2023-07-13T04:59:29;11.18;;;2.63;;
37535;SDS011;23379;51.554;6.736;2023-07-13T05:01:55;11.57;;;2.85;;
37535;SDS011;23379;51.554;6.736;2023-07-13T05:04:20;8.18;;;2.40;;
37535;SDS011;23379;51.554;6.736;2023-07-13T05:06:45;13.25;;;3.03;;
37535;SDS011;23379;51.554;6.736;2023-07-13T05:09:11;8.68;;;2.80;;
37535;SDS011;23379;51.554;6.736;2023-07-13T05:11:37;9.98;;;2.42;;
37535;SDS011;23379;51.554;6.736;2023-07-13T05:14:03;11.23;;;3.03;;
37535;SDS011;23379;51.554;6.736;2023-07-13T05:16:28;12.38;;;3.17;;
37535;SDS011;23379;51.554;6.736;2023-07-13T05:18:53;6.60;;;2.15;;
37535;SDS011;23379;51.554;6.736;2023-07-13T05:21:19;8.20;;;2.67;;
37535;SDS011;23379;51.554;6.736;2023-07-13T05:23:45;14.18;;;2.83;;
37535;SDS011;23379;51.554;6.736;2023-07-13T05:26:10;8.70;;;3.05;;
37535;SDS011;23379;51.554;6.736;2023-07-13T05:28:36;9.80;;;2.70;;
37535;SDS011;23379;51.554;6.736;2023-07-13T05:31:02;8.23;;;2.83;;
37535;SDS011;23379;51.554;6.736;2023-07-13T05:33:28;12.52;;;3.30;;
37535;SDS011;23379;51.554;6.736;2023-07-13T05:35:53;13.85;;;3.00;;
37535;SDS011;23379;51.554;6.736;2023-07-13T05:38:19;8.75;;;3.10;;
37535;SDS011;23379;51.554;6.736;2023-07-13T05:40:44;13.13;;;3.35;;
37535;SDS011;23379;51.554;6.736;2023-07-13T05:43:11;7.63;;;3.10;;
37535;SDS011;23379;51.554;6.736;2023-07-13T05:45:36;11.85;;;3.20;;
37535;SDS011;23379;51.554;6.736;2023-07-13T05:48:02;9.27;;;2.88;;
37535;SDS011;23379;51.554;6.736;2023-07-13T05:50:27;12.40;;;2.92;;
37535;SDS011;23379;51.554;6.736;2023-07-13T05:52:53;16.05;;;3.70;;
37535;SDS011;23379;51.554;6.736;2023-07-13T05:55:19;13.63;;;3.00;;
37535;SDS011;23379;51.554;6.736;2023-07-13T05:57:44;15.50;;;3.63;;
37535;SDS011;23379;51.554;6.736;2023-07-13T06:00:10;14.93;;;3.97;;
37535;SDS011;23379;51.554;6.736;2023-07-13T06:02:36;8.88;;;3.20;;
37535;SDS011;23379;51.554;6.736;2023-07-13T06:05:01;12.52;;;2.65;;
37535;SDS011;23379;51.554;6.736;2023-07-13T06:07:26;15.00;;;3.53;;
37535;SDS011;23379;51.554;6.736;2023-07-13T06:09:52;12.55;;;3.80;;
37535;SDS011;23379;51.554;6.736;2023-07-13T06:12:17;13.98;;;4.07;;
37535;SDS011;23379;51.554;6.736;2023-07-13T06:14:42;15.15;;;3.72;;
37535;SDS011;23379;51.554;6.736;2023-07-13T06:17:08;11.68;;;3.42;;
37535;SDS011;23379;51.554;6.736;2023-07-13T06:19:33;16.70;;;3.75;;
37535;SDS011;23379;51.554;6.736;2023-07-13T06:21:59;17.48;;;3.75;;
37535;SDS011;23379;51.554;6.736;2023-07-13T06:24:24;11.27;;;3.67;;
37535;SDS011;23379;51.554;6.736;2023-07-13T06:26:50;20.30;;;4.63;;
37535;SDS011;23379;51.554;6.736;2023-07-13T06:29:16;15.70;;;4.13;;
37535;SDS011;23379;51.554;6.736;2023-07-13T06:31:41;18.58;;;3.90;;
37535;SDS011;23379;51.554;6.736;2023-07-13T06:34:07;12.07;;;3.70;;
37535;SDS011;23379;51.554;6.736;2023-07-13T06:36:32;13.85;;;3.80;;
37535;SDS011;23379;51.554;6.736;2023-07-13T06:38:57;11.43;;;3.50;;
37535;SDS011;23379;51.554;6.736;2023-07-13T06:41:23;18.80;;;4.55;;
37535;SDS011;23379;51.554;6.736;2023-07-13T06:43:51;14.10;;;3.88;;
37535;SDS011;23379;51.554;6.736;2023-07-13T06:46:16;10.82;;;4.00;;
37535;SDS011;23379;51.554;6.736;2023-07-13T06:48:41;15.75;;;3.92;;
37535;SDS011;23379;51.554;6.736;2023-07-13T06:51:07;22.30;;;4.25;;
37535;SDS011;23379;51.554;6.736;2023-07-13T06:53:33;13.50;;;3.85;;
37535;SDS011;23379;51.554;6.736;2023-07-13T06:55:58;12.65;;;3.67;;
37535;SDS011;23379;51.554;6.736;2023-07-13T06:58:23;15.98;;;3.90;;
37535;SDS011;23379;51.554;6.736;2023-07-13T07:00:50;11.25;;;3.90;;
37535;SDS011;23379;51.554;6.736;2023-07-13T07:03:16;13.95;;;3.15;;
37535;SDS011;23379;51.554;6.736;2023-07-13T07:05:41;13.90;;;3.83;;
37535;SDS011;23379;51.554;6.736;2023-07-13T07:08:07;8.30;;;3.42;;
37535;SDS011;23379;51.554;6.736;2023-07-13T07:10:33;13.68;;;4.07;;
37535;SDS011;23379;51.554;6.736;2023-07-13T07:12:58;13.68;;;3.85;;
37535;SDS011;23379;51.554;6.736;2023-07-13T07:15:25;16.70;;;3.78;;
37535;SDS011;23379;51.554;6.736;2023-07-13T07:17:50;12.38;;;3.85;;
37535;SDS011;23379;51.554;6.736;2023-07-13T07:20:16;13.15;;;3.53;;
37535;SDS011;23379;51.554;6.736;2023-07-13T07:22:41;13.13;;;3.92;;
37535;SDS011;23379;51.554;6.736;2023-07-13T07:25:06;17.02;;;4.43;;
37535;SDS011;23379;51.554;6.736;2023-07-13T07:27:32;13.50;;;3.42;;
37535;SDS011;23379;51.554;6.736;2023-07-13T07:29:57;15.82;;;4.05;;
37535;SDS011;23379;51.554;6.736;2023-07-13T07:32:23;14.57;;;3.78;;
37535;SDS011;23379;51.554;6.736;2023-07-13T07:34:49;13.57;;;4.10;;
37535;SDS011;23379;51.554;6.736;2023-07-13T07:37:14;13.85;;;3.90;;
37535;SDS011;23379;51.554;6.736;2023-07-13T07:39:40;11.10;;;3.92;;
37535;SDS011;23379;51.554;6.736;2023-07-13T07:42:05;11.45;;;3.53;;
37535;SDS011;23379;51.554;6.736;2023-07-13T07:44:31;14.43;;;3.80;;
37535;SDS011;23379;51.554;6.736;2023-07-13T07:46:57;16.83;;;3.95;;
37535;SDS011;23379;51.554;6.736;2023-07-13T07:49:22;10.38;;;3.55;;
37535;SDS011;23379;51.554;6.736;2023-07-13T07:51:48;11.00;;;3.40;;
37535;SDS011;23379;51.554;6.736;2023-07-13T07:54:13;13.77;;;3.63;;
37535;SDS011;23379;51.554;6.736;2023-07-13T07:56:39;12.25;;;3.35;;
37535;SDS011;23379;51.554;6.736;2023-07-13T07:59:05;9.45;;;3.10;;
37535;SDS011;23379;51.554;6.736;2023-07-13T08:01:30;14.45;;;3.58;;
37535;SDS011;23379;51.554;6.736;2023-07-13T08:03:56;8.35;;;3.53;;
37535;SDS011;23379;51.554;6.736;2023-07-13T08:06:21;12.27;;;3.38;;
37535;SDS011;23379;51.554;6.736;2023-07-13T08:08:47;11.95;;;2.92;;
37535;SDS011;23379;51.554;6.736;2023-07-13T08:13:40;13.98;;;3.35;;
37535;SDS011;23379;51.554;6.736;2023-07-13T08:16:05;12.38;;;3.33;;
37535;SDS011;23379;51.554;6.736;2023-07-13T08:18:31;12.50;;;3.50;;
37535;SDS011;23379;51.554;6.736;2023-07-13T08:20:57;12.05;;;3.42;;
37535;SDS011;23379;51.554;6.736;2023-07-13T08:31:57;12.18;;;3.83;;
37535;SDS011;23379;51.554;6.736;2023-07-13T08:34:22;11.68;;;3.55;;
37535;SDS011;23379;51.554;6.736;2023-07-13T08:36:48;11.30;;;3.10;;
37535;SDS011;23379;51.554;6.736;2023-07-13T08:39:13;10.77;;;3.00;;
37535;SDS011;23379;51.554;6.736;2023-07-13T08:41:38;11.93;;;3.65;;
37535;SDS011;23379;51.554;6.736;2023-07-13T08:44:04;14.57;;;3.35;;
37535;SDS011;23379;51.554;6.736;2023-07-13T08:46:41;18.35;;;3.63;;
37535;SDS011;23379;51.554;6.736;2023-07-13T08:49:16;13.82;;;3.10;;
37535;SDS011;23379;51.554;6.736;2023-07-13T08:54:18;12.10;;;3.35;;
37535;SDS011;23379;51.554;6.736;2023-07-13T08:56:47;14.50;;;3.58;;
37535;SDS011;23379;51.554;6.736;2023-07-13T08:59:18;15.10;;;3.60;;
37535;SDS011;23379;51.554;6.736;2023-07-13T09:01:54;10.73;;;3.08;;
37535;SDS011;23379;51.554;6.736;2023-07-13T09:07:41;13.50;;;3.42;;
37535;SDS011;23379;51.554;6.736;2023-07-13T09:10:46;9.48;;;2.83;;
37535;SDS011;23379;51.554;6.736;2023-07-13T09:16:05;10.07;;;3.05;;
37535;SDS011;23379;51.554;6.736;2023-07-13T09:21:30;9.30;;;2.83;;
37535;SDS011;23379;51.554;6.736;2023-07-13T09:24:26;9.20;;;2.50;;
37535;SDS011;23379;51.554;6.736;2023-07-13T09:26:50;9.30;;;2.83;;
37535;SDS011;23379;51.554;6.736;2023-07-13T09:29:21;9.82;;;3.20;;
37535;SDS011;23379;51.554;6.736;2023-07-13T09:31:54;9.95;;;2.75;;
37535;SDS011;23379;51.554;6.736;2023-07-13T09:34:23;9.23;;;2.92;;
37535;SDS011;23379;51.554;6.736;2023-07-13T09:36:49;8.30;;;2.95;;
37535;SDS011;23379;51.554;6.736;2023-07-13T09:39:15;8.90;;;3.08;;
37535;SDS011;23379;51.554;6.736;2023-07-13T09:42:03;11.25;;;3.13;;
37535;SDS011;23379;51.554;6.736;2023-07-13T09:44:38;11.73;;;3.33;;
37535;SDS011;23379;51.554;6.736;2023-07-13T09:47:18;11.85;;;3.17;;
37535;SDS011;23379;51.554;6.736;2023-07-13T09:49:48;8.73;;;2.80;;
37535;SDS011;23379;51.554;6.736;2023-07-13T09:52:20;9.77;;;2.67;;
37535;SDS011;23379;51.554;6.736;2023-07-13T09:54:46;10.23;;;2.78;;
37535;SDS011;23379;51.554;6.736;2023-07-13T09:57:16;12.82;;;3.38;;
37535;SDS011;23379;51.554;6.736;2023-07-13T09:59:44;7.78;;;2.95;;
37535;SDS011;23379;51.554;6.736;2023-07-13T10:05:33;9.32;;;3.10;;
37535;SDS011;23379;51.554;6.736;2023-07-13T10:07:52;12.52;;;3.15;;
37535;SDS011;23379;51.554;6.736;2023-07-13T10:10:22;9.07;;;2.70;;
37535;SDS011;23379;51.554;6.736;2023-07-13T10:12:48;7.22;;;2.63;;
37535;SDS011;23379;51.554;6.736;2023-07-13T10:15:19;12.45;;;2.83;;
37535;SDS011;23379;51.554;6.736;2023-07-13T10:17:48;12.95;;;2.75;;
37535;SDS011;23379;51.554;6.736;2023-07-13T10:20:15;8.35;;;2.30;;
37535;SDS011;23379;51.554;6.736;2023-07-13T10:25:20;7.47;;;2.40;;
37535;SDS011;23379;51.554;6.736;2023-07-13T10:27:56;13.77;;;2.00;;
37535;SDS011;23379;51.554;6.736;2023-07-13T10:30:28;12.20;;;3.00;;
37535;SDS011;23379;51.554;6.736;2023-07-13T10:33:04;7.15;;;2.20;;
37535;SDS011;23379;51.554;6.736;2023-07-13T10:35:36;9.13;;;2.40;;
37535;SDS011;23379;51.554;6.736;2023-07-13T10:38:10;9.63;;;2.40;;
37535;SDS011;23379;51.554;6.736;2023-07-13T10:43:11;10.20;;;2.08;;
37535;SDS011;23379;51.554;6.736;2023-07-13T10:46:03;6.85;;;2.13;;
37535;SDS011;23379;51.554;6.736;2023-07-13T10:48:30;8.57;;;1.80;;
37535;SDS011;23379;51.554;6.736;2023-07-13T10:50:59;6.30;;;2.20;;
37535;SDS011;23379;51.554;6.736;2023-07-13T10:53:36;4.85;;;2.10;;
37535;SDS011;23379;51.554;6.736;2023-07-13T10:58:39;5.10;;;1.50;;
37535;SDS011;23379;51.554;6.736;2023-07-13T11:03:32;10.63;;;2.17;;
37535;SDS011;23379;51.554;6.736;2023-07-13T11:06:11;5.97;;;1.75;;
37535;SDS011;23379;51.554;6.736;2023-07-13T11:08:56;6.07;;;1.73;;
37535;SDS011;23379;51.554;6.736;2023-07-13T11:18:46;4.80;;;1.45;;
37535;SDS011;23379;51.554;6.736;2023-07-13T11:21:17;4.28;;;1.55;;
37535;SDS011;23379;51.554;6.736;2023-07-13T11:23:45;7.30;;;1.67;;
37535;SDS011;23379;51.554;6.736;2023-07-13T11:29:07;7.03;;;1.75;;
37535;SDS011;23379;51.554;6.736;2023-07-13T11:31:57;7.07;;;1.67;;
37535;SDS011;23379;51.554;6.736;2023-07-13T11:34:33;8.25;;;1.70;;
37535;SDS011;23379;51.554;6.736;2023-07-13T11:37:01;5.07;;;1.73;;
37535;SDS011;23379;51.554;6.736;2023-07-13T11:39:31;6.05;;;1.80;;
37535;SDS011;23379;51.554;6.736;2023-07-13T11:41:59;4.03;;;1.60;;
37535;SDS011;23379;51.554;6.736;2023-07-13T11:44:28;10.13;;;2.17;;
37535;SDS011;23379;51.554;6.736;2023-07-13T11:46:56;6.65;;;1.85;;
37535;SDS011;23379;51.554;6.736;2023-07-13T11:49:26;6.57;;;1.77;;
37535;SDS011;23379;51.554;6.736;2023-07-13T11:51:55;4.53;;;1.50;;
37535;SDS011;23379;51.554;6.736;2023-07-13T11:54:41;6.85;;;1.70;;
37535;SDS011;23379;51.554;6.736;2023-07-13T11:57:29;4.80;;;1.35;;
37535;SDS011;23379;51.554;6.736;2023-07-13T11:59:58;7.80;;;1.45;;
37535;SDS011;23379;51.554;6.736;2023-07-13T12:02:28;5.18;;;1.60;;
37535;SDS011;23379;51.554;6.736;2023-07-13T12:04:57;5.50;;;1.35;;
37535;SDS011;23379;51.554;6.736;2023-07-13T12:07:24;5.07;;;1.60;;
37535;SDS011;23379;51.554;6.736;2023-07-13T12:09:59;6.55;;;1.60;;
37535;SDS011;23379;51.554;6.736;2023-07-13T12:12:28;7.07;;;1.60;;
37535;SDS011;23379;51.554;6.736;2023-07-13T12:14:54;5.75;;;1.55;;
37535;SDS011;23379;51.554;6.736;2023-07-13T12:17:21;7.47;;;1.98;;
37535;SDS011;23379;51.554;6.736;2023-07-13T12:19:47;4.47;;;1.77;;
37535;SDS011;23379;51.554;6.736;2023-07-13T12:22:15;5.20;;;1.50;;
37535;SDS011;23379;51.554;6.736;2023-07-13T12:24:43;5.22;;;1.65;;
37535;SDS011;23379;51.554;6.736;2023-07-13T12:27:20;4.60;;;1.15;;
37535;SDS011;23379;51.554;6.736;2023-07-13T12:32:25;8.95;;;1.70;;
37535;SDS011;23379;51.554;6.736;2023-07-13T12:34:53;4.90;;;1.42;;
37535;SDS011;23379;51.554;6.736;2023-07-13T12:37:21;8.60;;;1.80;;
37535;SDS011;23379;51.554;6.736;2023-07-13T12:39:47;5.88;;;1.52;;
37535;SDS011;23379;51.554;6.736;2023-07-13T12:44:40;4.00;;;1.30;;
37535;SDS011;23379;51.554;6.736;2023-07-13T12:47:14;5.38;;;1.75;;
37535;SDS011;23379;51.554;6.736;2023-07-13T12:49:42;9.27;;;2.00;;
37535;SDS011;23379;51.554;6.736;2023-07-13T12:52:13;7.47;;;2.15;;
37535;SDS011;23379;51.554;6.736;2023-07-13T12:54:41;8.90;;;2.50;;
37535;SDS011;23379;51.554;6.736;2023-07-13T12:57:08;6.95;;;2.22;;
37535;SDS011;23379;51.554;6.736;2023-07-13T12:59:41;7.13;;;2.58;;
37535;SDS011;23379;51.554;6.736;2023-07-13T13:05:04;3.65;;;2.15;;
37535;SDS011;23379;51.554;6.736;2023-07-13T13:07:31;7.65;;;2.00;;
37535;SDS011;23379;51.554;6.736;2023-07-13T13:09:56;5.50;;;2.10;;
37535;SDS011;23379;51.554;6.736;2023-07-13T13:12:21;3.53;;;1.98;;
37535;SDS011;23379;51.554;6.736;2023-07-13T13:14:47;4.50;;;2.05;;
37535;SDS011;23379;51.554;6.736;2023-07-13T13:17:18;4.40;;;2.30;;
37535;SDS011;23379;51.554;6.736;2023-07-13T13:19:49;5.25;;;2.10;;
37535;SDS011;23379;51.554;6.736;2023-07-13T13:22:17;9.70;;;2.47;;
37535;SDS011;23379;51.554;6.736;2023-07-13T13:24:43;7.07;;;2.50;;
37535;SDS011;23379;51.554;6.736;2023-07-13T13:27:13;7.55;;;2.67;;
37535;SDS011;23379;51.554;6.736;2023-07-13T13:29:41;7.55;;;2.13;;
37535;SDS011;23379;51.554;6.736;2023-07-13T13:32:09;6.32;;;2.03;;
37535;SDS011;23379;51.554;6.736;2023-07-13T13:34:36;6.28;;;2.40;;
37535;SDS011;23379;51.554;6.736;2023-07-13T13:37:02;4.82;;;2.10;;
37535;SDS011;23379;51.554;6.736;2023-07-13T13:41:56;7.43;;;2.70;;
37535;SDS011;23379;51.554;6.736;2023-07-13T13:44:22;8.98;;;3.10;;
37535;SDS011;23379;51.554;6.736;2023-07-13T13:46:49;5.30;;;3.08;;
37535;SDS011;23379;51.554;6.736;2023-07-13T13:49:26;9.07;;;3.30;;
37535;SDS011;23379;51.554;6.736;2023-07-13T13:51:52;9.25;;;3.13;;
37535;SDS011;23379;51.554;6.736;2023-07-13T13:54:19;7.25;;;3.53;;
37535;SDS011;23379;51.554;6.736;2023-07-13T13:56:46;10.15;;;3.80;;
37535;SDS011;23379;51.554;6.736;2023-07-13T13:59:13;7.72;;;3.63;;
37535;SDS011;23379;51.554;6.736;2023-07-13T14:01:39;6.40;;;3.67;;
37535;SDS011;23379;51.554;6.736;2023-07-13T14:04:08;8.27;;;3.60;;
37535;SDS011;23379;51.554;6.736;2023-07-13T14:06:39;5.25;;;3.53;;
37535;SDS011;23379;51.554;6.736;2023-07-13T14:09:04;6.85;;;3.30;;
37535;SDS011;23379;51.554;6.736;2023-07-13T14:11:35;8.03;;;3.63;;
37535;SDS011;23379;51.554;6.736;2023-07-13T14:14:00;10.65;;;3.95;;
37535;SDS011;23379;51.554;6.736;2023-07-13T14:16:31;8.90;;;3.45;;
37535;SDS011;23379;51.554;6.736;2023-07-13T14:18:58;6.23;;;3.00;;
37535;SDS011;23379;51.554;6.736;2023-07-13T14:21:25;7.43;;;2.70;;
37535;SDS011;23379;51.554;6.736;2023-07-13T14:23:53;7.25;;;2.45;;
37535;SDS011;23379;51.554;6.736;2023-07-13T14:26:23;3.15;;;1.90;;
37535;SDS011;23379;51.554;6.736;2023-07-13T14:28:52;7.55;;;2.38;;
37535;SDS011;23379;51.554;6.736;2023-07-13T14:33:54;3.72;;;1.67;;
37535;SDS011;23379;51.554;6.736;2023-07-13T14:36:22;4.30;;;1.75;;
37535;SDS011;23379;51.554;6.736;2023-07-13T14:38:51;6.03;;;1.75;;
37535;SDS011;23379;51.554;6.736;2023-07-13T14:41:16;4.97;;;1.73;;
37535;SDS011;23379;51.554;6.736;2023-07-13T14:43:42;2.47;;;1.30;;
37535;SDS011;23379;51.554;6.736;2023-07-13T14:46:08;5.22;;;1.70;;
37535;SDS011;23379;51.554;6.736;2023-07-13T14:48:47;6.93;;;2.08;;
37535;SDS011;23379;51.554;6.736;2023-07-13T14:51:13;5.45;;;2.03;;
37535;SDS011;23379;51.554;6.736;2023-07-13T14:53:39;5.32;;;2.03;;
37535;SDS011;23379;51.554;6.736;2023-07-13T14:56:11;6.55;;;2.00;;
37535;SDS011;23379;51.554;6.736;2023-07-13T14:58:36;5.00;;;2.03;;
37535;SDS011;23379;51.554;6.736;2023-07-13T15:01:07;7.28;;;2.10;;
37535;SDS011;23379;51.554;6.736;2023-07-13T15:03:37;7.55;;;2.42;;
37535;SDS011;23379;51.554;6.736;2023-07-13T15:06:10;6.65;;;2.25;;
37535;SDS011;23379;51.554;6.736;2023-07-13T15:08:37;4.95;;;1.70;;
37535;SDS011;23379;51.554;6.736;2023-07-13T15:11:02;5.40;;;2.22;;
37535;SDS011;23379;51.554;6.736;2023-07-13T15:13:29;6.80;;;2.35;;
37535;SDS011;23379;51.554;6.736;2023-07-13T15:15:55;7.45;;;2.35;;
37535;SDS011;23379;51.554;6.736;2023-07-13T15:18:22;6.95;;;2.10;;
37535;SDS011;23379;51.554;6.736;2023-07-13T15:20:50;9.93;;;2.83;;
37535;SDS011;23379;51.554;6.736;2023-07-13T15:23:17;8.00;;;2.80;;
37535;SDS011;23379;51.554;6.736;2023-07-13T15:25:43;6.53;;;2.67;;
37535;SDS011;23379;51.554;6.736;2023-07-13T15:28:10;7.88;;;2.95;;
37535;SDS011;23379;51.554;6.736;2023-07-13T15:30:48;9.88;;;2.92;;
37535;SDS011;23379;51.554;6.736;2023-07-13T15:33:15;8.15;;;2.90;;
37535;SDS011;23379;51.554;6.736;2023-07-13T15:35:44;11.00;;;3.20;;
37535;SDS011;23379;51.554;6.736;2023-07-13T15:38:14;14.35;;;3.10;;
37535;SDS011;23379;51.554;6.736;2023-07-13T15:40:41;5.28;;;2.45;;
37535;SDS011;23379;51.554;6.736;2023-07-13T15:43:11;6.68;;;2.60;;
37535;SDS011;23379;51.554;6.736;2023-07-13T15:45:37;10.82;;;2.70;;
37535;SDS011;23379;51.554;6.736;2023-07-13T15:48:37;10.60;;;2.70;;
37535;SDS011;23379;51.554;6.736;2023-07-13T15:51:00;7.78;;;2.35;;